sensor_id;sensor_type;location;lat;lon;timestamp;temperature;humidity
24522;DHT22;12680;57.804;12.190;2023-09-12T00:01:41;17.70;99.90
24522;DHT22;12680;57.804;12.190;2023-09-12T00:04:15;17.80;99.90
24522;DHT22;12680;57.804;12.190;2023-09-12T00:06:42;17.80;99.90
24522;DHT22;12680;57.804;12.190;2023-09-12T00:09:21;17.80;99.90
24522;DHT22;12680;57.804;12.190;2023-09-12T00:12:02;17.90;99.90
24522;DHT22;12680;57.804;12.190;2023-09-12T00:14:36;17.90;99.90
24522;DHT22;12680;57.804;12.190;2023-09-12T00:17:03;17.90;99.90
24522;DHT22;12680;57.804;12.190;2023-09-12T00:19:29;17.90;99.90
24522;DHT22;12680;57.804;12.190;2023-09-12T00:22:03;17.90;99.90
24522;DHT22;12680;57.804;12.190;2023-09-12T00:24:30;18.00;99.90
24522;DHT22;12680;57.804;12.190;2023-09-12T00:27:04;19.00;99.90
24522;DHT22;12680;57.804;12.190;2023-09-12T00:29:32;19.20;99.90
24522;DHT22;12680;57.804;12.190;2023-09-12T00:32:06;19.70;99.90
24522;DHT22;12680;57.804;12.190;2023-09-12T00:34:32;18.00;99.90
24522;DHT22;12680;57.804;12.190;2023-09-12T00:36:59;18.00;99.90
24522;DHT22;12680;57.804;12.190;2023-09-12T00:39:33;18.10;99.90
24522;DHT22;12680;57.804;12.190;2023-09-12T00:42:00;18.10;99.90
24522;DHT22;12680;57.804;12.190;2023-09-12T00:44:33;19.10;99.90
24522;DHT22;12680;57.804;12.190;2023-09-12T00:47:01;18.10;99.90
24522;DHT22;12680;57.804;12.190;2023-09-12T00:49:36;18.10;99.90
24522;DHT22;12680;57.804;12.190;2023-09-12T00:52:03;18.10;99.90
24522;DHT22;12680;57.804;12.190;2023-09-12T00:54:37;18.10;99.90
24522;DHT22;12680;57.804;12.190;2023-09-12T00:57:04;18.20;99.90
24522;DHT22;12680;57.804;12.190;2023-09-12T00:59:31;18.20;99.90
24522;DHT22;12680;57.804;12.190;2023-09-12T01:02:06;19.30;99.90
24522;DHT22;12680;57.804;12.190;2023-09-12T01:04:32;18.20;99.90
24522;DHT22;12680;57.804;12.190;2023-09-12T01:07:06;18.20;99.90
24522;DHT22;12680;57.804;12.190;2023-09-12T01:09:33;18.30;99.90
24522;DHT22;12680;57.804;12.190;2023-09-12T01:12:14;18.90;99.90
24522;DHT22;12680;57.804;12.190;2023-09-12T01:14:41;18.30;99.90
24522;DHT22;12680;57.804;12.190;2023-09-12T01:17:15;18.30;99.90
24522;DHT22;12680;57.804;12.190;2023-09-12T01:19:42;18.30;99.90
24522;DHT22;12680;57.804;12.190;2023-09-12T01:28:15;18.30;99.90
24522;DHT22;12680;57.804;12.190;2023-09-12T01:30:50;19.00;99.90
24522;DHT22;12680;57.804;12.190;2023-09-12T01:33:18;18.40;99.90
24522;DHT22;12680;57.804;12.190;2023-09-12T01:35:52;18.90;99.90
24522;DHT22;12680;57.804;12.190;2023-09-12T01:38:19;18.40;99.90
24522;DHT22;12680;57.804;12.190;2023-09-12T01:40:52;18.50;99.90
24522;DHT22;12680;57.804;12.190;2023-09-12T01:43:28;18.50;99.90
24522;DHT22;12680;57.804;12.190;2023-09-12T01:45:58;18.80;99.90
24522;DHT22;12680;57.804;12.190;2023-09-12T01:48:34;18.50;99.90
24522;DHT22;12680;57.804;12.190;2023-09-12T01:51:02;18.50;99.90
24522;DHT22;12680;57.804;12.190;2023-09-12T01:53:36;18.50;99.90
24522;DHT22;12680;57.804;12.190;2023-09-12T01:56:03;18.50;99.90
24522;DHT22;12680;57.804;12.190;2023-09-12T01:58:30;18.60;99.90
24522;DHT22;12680;57.804;12.190;2023-09-12T02:01:04;18.50;99.90
24522;DHT22;12680;57.804;12.190;2023-09-12T02:03:31;18.90;99.90
24522;DHT22;12680;57.804;12.190;2023-09-12T02:05:58;18.60;99.90
24522;DHT22;12680;57.804;12.190;2023-09-12T02:08:31;18.60;99.90
24522;DHT22;12680;57.804;12.190;2023-09-12T02:10:57;18.60;99.90
24522;DHT22;12680;57.804;12.190;2023-09-12T02:13:38;18.70;99.90
24522;DHT22;12680;57.804;12.190;2023-09-12T02:16:05;18.70;99.90
24522;DHT22;12680;57.804;12.190;2023-09-12T02:18:31;18.70;99.90
24522;DHT22;12680;57.804;12.190;2023-09-12T02:21:05;18.80;99.90
24522;DHT22;12680;57.804;12.190;2023-09-12T02:23:32;18.70;99.90
24522;DHT22;12680;57.804;12.190;2023-09-12T02:25:58;18.80;99.90
24522;DHT22;12680;57.804;12.190;2023-09-12T02:28:32;18.70;99.90
24522;DHT22;12680;57.804;12.190;2023-09-12T02:30:59;19.70;99.90
24522;DHT22;12680;57.804;12.190;2023-09-12T02:33:32;18.70;99.90
24522;DHT22;12680;57.804;12.190;2023-09-12T02:35:59;18.80;99.90
24522;DHT22;12680;57.804;12.190;2023-09-12T02:38:32;18.70;99.90
24522;DHT22;12680;57.804;12.190;2023-09-12T02:40:59;18.80;99.90
24522;DHT22;12680;57.804;12.190;2023-09-12T02:43:32;18.90;99.90
24522;DHT22;12680;57.804;12.190;2023-09-12T02:45:59;21.10;99.90
24522;DHT22;12680;57.804;12.190;2023-09-12T02:48:25;18.80;99.90
24522;DHT22;12680;57.804;12.190;2023-09-12T02:50:59;18.80;99.90
24522;DHT22;12680;57.804;12.190;2023-09-12T02:53:25;18.80;99.90
24522;DHT22;12680;57.804;12.190;2023-09-12T02:55:59;18.80;99.90
24522;DHT22;12680;57.804;12.190;2023-09-12T02:58:25;18.70;99.90
24522;DHT22;12680;57.804;12.190;2023-09-12T03:00:59;18.80;99.90
24522;DHT22;12680;57.804;12.190;2023-09-12T03:03:26;18.70;99.90
24522;DHT22;12680;57.804;12.190;2023-09-12T03:06:00;18.70;99.90
24522;DHT22;12680;57.804;12.190;2023-09-12T03:08:34;18.70;99.90
24522;DHT22;12680;57.804;12.190;2023-09-12T03:11:08;19.50;99.90
24522;DHT22;12680;57.804;12.190;2023-09-12T03:13:41;18.60;99.90
24522;DHT22;12680;57.804;12.190;2023-09-12T03:16:12;19.30;99.90
24522;DHT22;12680;57.804;12.190;2023-09-12T03:18:39;18.60;99.90
24522;DHT22;12680;57.804;12.190;2023-09-12T03:21:13;18.60;99.90
24522;DHT22;12680;57.804;12.190;2023-09-12T03:23:40;18.60;99.90
24522;DHT22;12680;57.804;12.190;2023-09-12T03:26:14;18.70;99.90
24522;DHT22;12680;57.804;12.190;2023-09-12T03:28:40;18.60;99.90
24522;DHT22;12680;57.804;12.190;2023-09-12T03:31:12;18.60;99.90
24522;DHT22;12680;57.804;12.190;2023-09-12T03:33:46;18.60;99.90
24522;DHT22;12680;57.804;12.190;2023-09-12T03:36:17;18.60;99.90
24522;DHT22;12680;57.804;12.190;2023-09-12T03:38:51;20.10;99.90
24522;DHT22;12680;57.804;12.190;2023-09-12T03:41:18;18.60;99.90
24522;DHT22;12680;57.804;12.190;2023-09-12T03:43:54;18.60;99.90
24522;DHT22;12680;57.804;12.190;2023-09-12T03:46:21;18.60;99.90
24522;DHT22;12680;57.804;12.190;2023-09-12T03:48:48;18.90;99.90
24522;DHT22;12680;57.804;12.190;2023-09-12T03:51:22;19.20;99.90
24522;DHT22;12680;57.804;12.190;2023-09-12T03:53:49;18.40;99.90
24522;DHT22;12680;57.804;12.190;2023-09-12T03:56:23;18.50;99.90
24522;DHT22;12680;57.804;12.190;2023-09-12T03:58:50;18.60;99.90
24522;DHT22;12680;57.804;12.190;2023-09-12T04:01:16;18.50;99.90
24522;DHT22;12680;57.804;12.190;2023-09-12T04:03:50;18.50;99.90
24522;DHT22;12680;57.804;12.190;2023-09-12T04:06:30;18.50;99.90
24522;DHT22;12680;57.804;12.190;2023-09-12T04:09:11;18.50;99.90
24522;DHT22;12680;57.804;12.190;2023-09-12T04:11:38;18.50;99.90
24522;DHT22;12680;57.804;12.190;2023-09-12T04:14:13;18.50;99.90
24522;DHT22;12680;57.804;12.190;2023-09-12T04:16:47;18.40;99.90
24522;DHT22;12680;57.804;12.190;2023-09-12T04:19:14;18.40;99.90
24522;DHT22;12680;57.804;12.190;2023-09-12T04:21:48;18.70;99.90
24522;DHT22;12680;57.804;12.190;2023-09-12T04:24:14;18.40;99.90
24522;DHT22;12680;57.804;12.190;2023-09-12T04:26:50;18.40;99.90
24522;DHT22;12680;57.804;12.190;2023-09-12T04:29:16;18.80;99.90
24522;DHT22;12680;57.804;12.190;2023-09-12T04:31:50;18.40;99.90
24522;DHT22;12680;57.804;12.190;2023-09-12T04:34:19;18.40;99.90
24522;DHT22;12680;57.804;12.190;2023-09-12T04:36:45;18.40;99.90
24522;DHT22;12680;57.804;12.190;2023-09-12T04:39:19;18.60;99.90
24522;DHT22;12680;57.804;12.190;2023-09-12T04:41:46;18.30;99.90
24522;DHT22;12680;57.804;12.190;2023-09-12T04:44:19;18.30;99.90
24522;DHT22;12680;57.804;12.190;2023-09-12T04:46:45;18.20;99.90
24522;DHT22;12680;57.804;12.190;2023-09-12T04:49:19;18.20;99.90
24522;DHT22;12680;57.804;12.190;2023-09-12T04:51:46;18.20;99.90
24522;DHT22;12680;57.804;12.190;2023-09-12T04:54:12;18.20;99.90
24522;DHT22;12680;57.804;12.190;2023-09-12T04:56:46;18.20;99.90
24522;DHT22;12680;57.804;12.190;2023-09-12T04:59:13;18.20;99.90
24522;DHT22;12680;57.804;12.190;2023-09-12T05:01:41;20.50;99.90
24522;DHT22;12680;57.804;12.190;2023-09-12T05:04:20;18.30;99.90
24522;DHT22;12680;57.804;12.190;2023-09-12T05:07:01;18.10;99.90
24522;DHT22;12680;57.804;12.190;2023-09-12T05:09:35;18.30;99.90
24522;DHT22;12680;57.804;12.190;2023-09-12T05:12:02;18.10;99.90
24522;DHT22;12680;57.804;12.190;2023-09-12T05:14:28;18.70;99.90
24522;DHT22;12680;57.804;12.190;2023-09-12T05:17:08;18.10;99.90
24522;DHT22;12680;57.804;12.190;2023-09-12T05:19:35;18.10;99.90
24522;DHT22;12680;57.804;12.190;2023-09-12T05:22:15;18.10;99.90
24522;DHT22;12680;57.804;12.190;2023-09-12T05:24:42;18.10;99.90
24522;DHT22;12680;57.804;12.190;2023-09-12T05:27:16;18.10;99.90
24522;DHT22;12680;57.804;12.190;2023-09-12T05:29:43;18.10;99.90
24522;DHT22;12680;57.804;12.190;2023-09-12T05:32:09;18.10;99.90
24522;DHT22;12680;57.804;12.190;2023-09-12T05:34:43;19.70;99.90
24522;DHT22;12680;57.804;12.190;2023-09-12T05:37:11;18.10;99.90
24522;DHT22;12680;57.804;12.190;2023-09-12T05:39:45;18.10;99.90
24522;DHT22;12680;57.804;12.190;2023-09-12T05:42:12;18.10;99.90
24522;DHT22;12680;57.804;12.190;2023-09-12T05:44:39;20.30;99.90
24522;DHT22;12680;57.804;12.190;2023-09-12T05:47:12;18.70;99.90
24522;DHT22;12680;57.804;12.190;2023-09-12T05:49:38;18.10;99.90
24522;DHT22;12680;57.804;12.190;2023-09-12T05:52:12;18.20;99.90
24522;DHT22;12680;57.804;12.190;2023-09-12T05:54:39;18.20;99.90
24522;DHT22;12680;57.804;12.190;2023-09-12T05:57:09;18.20;99.90
24522;DHT22;12680;57.804;12.190;2023-09-12T05:59:42;18.30;99.90
24522;DHT22;12680;57.804;12.190;2023-09-12T06:02:09;18.40;99.90
24522;DHT22;12680;57.804;12.190;2023-09-12T06:04:36;19.30;99.90
24522;DHT22;12680;57.804;12.190;2023-09-12T06:07:09;20.90;99.90
24522;DHT22;12680;57.804;12.190;2023-09-12T06:09:36;18.60;99.90
24522;DHT22;12680;57.804;12.190;2023-09-12T06:12:09;18.60;99.90
24522;DHT22;12680;57.804;12.190;2023-09-12T06:14:35;20.40;99.90
24522;DHT22;12680;57.804;12.190;2023-09-12T06:17:16;18.60;99.90
24522;DHT22;12680;57.804;12.190;2023-09-12T06:19:42;19.60;99.90
24522;DHT22;12680;57.804;12.190;2023-09-12T06:22:09;18.70;99.90
24522;DHT22;12680;57.804;12.190;2023-09-12T06:24:44;20.30;99.90
24522;DHT22;12680;57.804;12.190;2023-09-12T06:27:10;18.70;99.90
24522;DHT22;12680;57.804;12.190;2023-09-12T06:29:52;18.70;99.90
24522;DHT22;12680;57.804;12.190;2023-09-12T06:32:19;18.70;99.90
24522;DHT22;12680;57.804;12.190;2023-09-12T06:34:52;18.70;99.90
24522;DHT22;12680;57.804;12.190;2023-09-12T06:37:19;18.70;99.90
24522;DHT22;12680;57.804;12.190;2023-09-12T06:39:49;18.70;99.90
24522;DHT22;12680;57.804;12.190;2023-09-12T06:42:23;18.70;99.90
24522;DHT22;12680;57.804;12.190;2023-09-12T06:44:50;18.70;99.90
24522;DHT22;12680;57.804;12.190;2023-09-12T06:47:23;20.90;99.90
24522;DHT22;12680;57.804;12.190;2023-09-12T06:49:50;18.80;99.90
24522;DHT22;12680;57.804;12.190;2023-09-12T06:52:21;19.20;99.90
24522;DHT22;12680;57.804;12.190;2023-09-12T06:54:55;18.80;99.90
24522;DHT22;12680;57.804;12.190;2023-09-12T06:57:21;18.90;99.90
24522;DHT22;12680;57.804;12.190;2023-09-12T07:02:22;18.90;99.90
24522;DHT22;12680;57.804;12.190;2023-09-12T07:04:49;19.00;99.90
24522;DHT22;12680;57.804;12.190;2023-09-12T07:07:29;19.00;99.90
24522;DHT22;12680;57.804;12.190;2023-09-12T07:09:56;19.10;99.90
24522;DHT22;12680;57.804;12.190;2023-09-12T07:12:49;19.10;99.90
24522;DHT22;12680;57.804;12.190;2023-09-12T07:15:16;19.20;99.90
24522;DHT22;12680;57.804;12.190;2023-09-12T07:17:51;21.10;99.90
24522;DHT22;12680;57.804;12.190;2023-09-12T07:20:18;19.20;99.90
24522;DHT22;12680;57.804;12.190;2023-09-12T07:22:53;19.20;99.90
24522;DHT22;12680;57.804;12.190;2023-09-12T07:25:19;19.20;99.90
24522;DHT22;12680;57.804;12.190;2023-09-12T07:27:50;20.50;99.90
24522;DHT22;12680;57.804;12.190;2023-09-12T07:30:24;19.20;99.90
24522;DHT22;12680;57.804;12.190;2023-09-12T07:32:51;19.40;99.90
24522;DHT22;12680;57.804;12.190;2023-09-12T07:35:25;19.50;99.90
24522;DHT22;12680;57.804;12.190;2023-09-12T07:37:52;18.90;99.90
24522;DHT22;12680;57.804;12.190;2023-09-12T07:40:25;20.00;99.90
24522;DHT22;12680;57.804;12.190;2023-09-12T07:42:52;20.00;99.90
24522;DHT22;12680;57.804;12.190;2023-09-12T07:45:20;20.10;99.90
24522;DHT22;12680;57.804;12.190;2023-09-12T07:47:54;21.00;99.90
24522;DHT22;12680;57.804;12.190;2023-09-12T07:50:21;20.10;99.90
24522;DHT22;12680;57.804;12.190;2023-09-12T07:52:54;20.10;99.90
24522;DHT22;12680;57.804;12.190;2023-09-12T07:55:23;20.20;99.90
24522;DHT22;12680;57.804;12.190;2023-09-12T07:57:56;20.10;99.90
24522;DHT22;12680;57.804;12.190;2023-09-12T08:00:23;20.20;99.90
24522;DHT22;12680;57.804;12.190;2023-09-12T08:02:57;20.30;99.90
24522;DHT22;12680;57.804;12.190;2023-09-12T08:05:24;20.30;99.90
24522;DHT22;12680;57.804;12.190;2023-09-12T08:08:11;20.20;99.90
24522;DHT22;12680;57.804;12.190;2023-09-12T08:10:37;20.20;99.90
24522;DHT22;12680;57.804;12.190;2023-09-12T08:13:11;20.20;99.90
24522;DHT22;12680;57.804;12.190;2023-09-12T08:15:38;20.20;99.90
24522;DHT22;12680;57.804;12.190;2023-09-12T08:18:04;20.20;99.90
24522;DHT22;12680;57.804;12.190;2023-09-12T08:20:38;20.30;99.90
24522;DHT22;12680;57.804;12.190;2023-09-12T08:23:05;20.30;99.90
24522;DHT22;12680;57.804;12.190;2023-09-12T08:25:32;20.30;99.90
24522;DHT22;12680;57.804;12.190;2023-09-12T08:28:06;20.20;99.90
24522;DHT22;12680;57.804;12.190;2023-09-12T08:30:33;20.50;99.90
24522;DHT22;12680;57.804;12.190;2023-09-12T08:33:06;20.10;99.90
24522;DHT22;12680;57.804;12.190;2023-09-12T08:35:33;20.00;99.90
24522;DHT22;12680;57.804;12.190;2023-09-12T08:38:07;20.00;99.90
24522;DHT22;12680;57.804;12.190;2023-09-12T08:40:35;19.90;99.90
24522;DHT22;12680;57.804;12.190;2023-09-12T08:43:08;19.90;99.90
24522;DHT22;12680;57.804;12.190;2023-09-12T08:45:35;19.90;99.90
24522;DHT22;12680;57.804;12.190;2023-09-12T08:48:03;20.00;99.90
24522;DHT22;12680;57.804;12.190;2023-09-12T08:50:38;20.00;99.90
24522;DHT22;12680;57.804;12.190;2023-09-12T08:53:05;21.30;99.90
24522;DHT22;12680;57.804;12.190;2023-09-12T08:55:35;20.30;99.90
24522;DHT22;12680;57.804;12.190;2023-09-12T08:58:08;20.40;99.90
24522;DHT22;12680;57.804;12.190;2023-09-12T09:00:36;20.60;99.90
24522;DHT22;12680;57.804;12.190;2023-09-12T09:03:03;20.70;99.90
24522;DHT22;12680;57.804;12.190;2023-09-12T09:05:38;21.90;99.90
24522;DHT22;12680;57.804;12.190;2023-09-12T09:08:20;20.90;99.90
24522;DHT22;12680;57.804;12.190;2023-09-12T09:10:58;20.80;99.90
24522;DHT22;12680;57.804;12.190;2023-09-12T09:13:25;20.80;99.90
24522;DHT22;12680;57.804;12.190;2023-09-12T09:16:15;20.80;99.90
24522;DHT22;12680;57.804;12.190;2023-09-12T09:18:57;20.70;99.90
24522;DHT22;12680;57.804;12.190;2023-09-12T09:21:27;20.70;99.90
24522;DHT22;12680;57.804;12.190;2023-09-12T09:24:04;20.60;99.90
24522;DHT22;12680;57.804;12.190;2023-09-12T09:26:47;20.60;99.90
24522;DHT22;12680;57.804;12.190;2023-09-12T09:29:21;20.60;99.90
24522;DHT22;12680;57.804;12.190;2023-09-12T09:31:49;20.50;99.90
24522;DHT22;12680;57.804;12.190;2023-09-12T09:34:23;20.50;99.90
24522;DHT22;12680;57.804;12.190;2023-09-12T09:36:52;20.50;99.90
24522;DHT22;12680;57.804;12.190;2023-09-12T09:39:21;20.60;99.90
24522;DHT22;12680;57.804;12.190;2023-09-12T09:41:56;20.60;99.90
24522;DHT22;12680;57.804;12.190;2023-09-12T09:44:25;20.70;99.90
24522;DHT22;12680;57.804;12.190;2023-09-12T09:47:00;20.70;99.90
24522;DHT22;12680;57.804;12.190;2023-09-12T09:49:31;20.90;99.90
24522;DHT22;12680;57.804;12.190;2023-09-12T09:52:07;20.90;99.90
24522;DHT22;12680;57.804;12.190;2023-09-12T09:54:34;21.00;99.90
24522;DHT22;12680;57.804;12.190;2023-09-12T09:57:07;21.70;99.90
24522;DHT22;12680;57.804;12.190;2023-09-12T09:59:34;20.90;99.90
24522;DHT22;12680;57.804;12.190;2023-09-12T10:02:01;20.80;99.90
24522;DHT22;12680;57.804;12.190;2023-09-12T10:04:36;20.80;99.90
24522;DHT22;12680;57.804;12.190;2023-09-12T10:07:07;20.80;99.90
24522;DHT22;12680;57.804;12.190;2023-09-12T10:09:49;21.40;99.90
24522;DHT22;12680;57.804;12.190;2023-09-12T10:12:16;20.80;99.90
24522;DHT22;12680;57.804;12.190;2023-09-12T10:14:50;20.40;99.90
24522;DHT22;12680;57.804;12.190;2023-09-12T10:17:18;21.70;99.90
24522;DHT22;12680;57.804;12.190;2023-09-12T10:19:55;20.40;99.90
24522;DHT22;12680;57.804;12.190;2023-09-12T10:22:36;20.40;99.90
24522;DHT22;12680;57.804;12.190;2023-09-12T10:25:04;20.60;99.90
24522;DHT22;12680;57.804;12.190;2023-09-12T10:27:37;20.60;99.90
24522;DHT22;12680;57.804;12.190;2023-09-12T10:30:04;20.70;99.90
24522;DHT22;12680;57.804;12.190;2023-09-12T10:32:38;20.80;99.90
24522;DHT22;12680;57.804;12.190;2023-09-12T10:35:06;21.40;99.90
24522;DHT22;12680;57.804;12.190;2023-09-12T10:37:43;20.90;99.90
24522;DHT22;12680;57.804;12.190;2023-09-12T10:40:13;21.00;99.90
24522;DHT22;12680;57.804;12.190;2023-09-12T10:42:49;20.90;99.90
24522;DHT22;12680;57.804;12.190;2023-09-12T10:45:18;20.80;99.90
24522;DHT22;12680;57.804;12.190;2023-09-12T10:47:45;20.80;99.90
24522;DHT22;12680;57.804;12.190;2023-09-12T10:50:20;20.70;99.90
24522;DHT22;12680;57.804;12.190;2023-09-12T10:52:47;20.70;99.90
24522;DHT22;12680;57.804;12.190;2023-09-12T10:55:21;20.60;99.90
24522;DHT22;12680;57.804;12.190;2023-09-12T10:58:05;20.80;99.90
24522;DHT22;12680;57.804;12.190;2023-09-12T11:00:38;20.70;99.90
24522;DHT22;12680;57.804;12.190;2023-09-12T11:06:01;21.00;99.90
24522;DHT22;12680;57.804;12.190;2023-09-12T11:08:40;21.30;99.90
24522;DHT22;12680;57.804;12.190;2023-09-12T11:11:19;22.60;99.90
24522;DHT22;12680;57.804;12.190;2023-09-12T12:08:31;20.40;99.90
24522;DHT22;12680;57.804;12.190;2023-09-12T12:10:59;21.10;99.90
24522;DHT22;12680;57.804;12.190;2023-09-12T12:13:26;22.90;99.90
24522;DHT22;12680;57.804;12.190;2023-09-12T12:15:55;21.50;99.90
24522;DHT22;12680;57.804;12.190;2023-09-12T12:18:23;21.60;99.90
24522;DHT22;12680;57.804;12.190;2023-09-12T12:20:50;21.60;99.90
24522;DHT22;12680;57.804;12.190;2023-09-12T12:23:17;21.60;99.90
24522;DHT22;12680;57.804;12.190;2023-09-12T12:25:44;21.60;99.90
24522;DHT22;12680;57.804;12.190;2023-09-12T12:28:11;22.50;99.90
24522;DHT22;12680;57.804;12.190;2023-09-12T12:30:38;21.60;99.90
24522;DHT22;12680;57.804;12.190;2023-09-12T12:33:09;21.50;99.90
24522;DHT22;12680;57.804;12.190;2023-09-12T12:36:03;21.60;99.90
24522;DHT22;12680;57.804;12.190;2023-09-12T12:38:36;21.50;99.90
24522;DHT22;12680;57.804;12.190;2023-09-12T12:41:10;21.30;99.90
24522;DHT22;12680;57.804;12.190;2023-09-12T12:43:40;21.30;99.90
24522;DHT22;12680;57.804;12.190;2023-09-12T12:46:12;21.40;99.90
24522;DHT22;12680;57.804;12.190;2023-09-12T12:48:43;21.90;99.90
24522;DHT22;12680;57.804;12.190;2023-09-12T12:51:25;23.10;99.90
24522;DHT22;12680;57.804;12.190;2023-09-12T12:53:54;21.50;99.90
24522;DHT22;12680;57.804;12.190;2023-09-12T12:56:23;21.90;99.90
24522;DHT22;12680;57.804;12.190;2023-09-12T12:58:52;21.60;99.90
24522;DHT22;12680;57.804;12.190;2023-09-12T13:01:19;21.30;99.90
24522;DHT22;12680;57.804;12.190;2023-09-12T13:03:46;21.90;99.90
24522;DHT22;12680;57.804;12.190;2023-09-12T13:06:13;22.90;99.90
24522;DHT22;12680;57.804;12.190;2023-09-12T13:08:41;23.20;99.90
24522;DHT22;12680;57.804;12.190;2023-09-12T13:11:13;21.70;99.90
24522;DHT22;12680;57.804;12.190;2023-09-12T13:13:43;21.30;99.90
24522;DHT22;12680;57.804;12.190;2023-09-12T13:16:13;21.40;99.90
24522;DHT22;12680;57.804;12.190;2023-09-12T13:18:40;21.60;99.90
24522;DHT22;12680;57.804;12.190;2023-09-12T13:21:07;21.80;99.90
24522;DHT22;12680;57.804;12.190;2023-09-12T13:23:37;22.90;99.90
24522;DHT22;12680;57.804;12.190;2023-09-12T13:26:06;21.40;99.90
24522;DHT22;12680;57.804;12.190;2023-09-12T13:28:33;21.90;99.90
24522;DHT22;12680;57.804;12.190;2023-09-12T13:31:00;21.30;99.90
24522;DHT22;12680;57.804;12.190;2023-09-12T13:33:27;21.30;99.90
24522;DHT22;12680;57.804;12.190;2023-09-12T13:35:54;22.00;99.90
24522;DHT22;12680;57.804;12.190;2023-09-12T13:38:21;21.50;99.90
24522;DHT22;12680;57.804;12.190;2023-09-12T13:40:49;22.40;99.90
24522;DHT22;12680;57.804;12.190;2023-09-12T13:43:16;21.40;99.90
24522;DHT22;12680;57.804;12.190;2023-09-12T13:45:43;22.90;99.90
24522;DHT22;12680;57.804;12.190;2023-09-12T13:48:10;21.40;99.90
24522;DHT22;12680;57.804;12.190;2023-09-12T13:50:39;21.80;99.90
24522;DHT22;12680;57.804;12.190;2023-09-12T13:53:06;21.30;99.90
24522;DHT22;12680;57.804;12.190;2023-09-12T13:55:36;22.00;99.90
24522;DHT22;12680;57.804;12.190;2023-09-12T13:58:23;22.70;99.90
24522;DHT22;12680;57.804;12.190;2023-09-12T14:00:53;21.30;99.90
24522;DHT22;12680;57.804;12.190;2023-09-12T14:03:20;21.40;99.90
24522;DHT22;12680;57.804;12.190;2023-09-12T14:05:47;21.60;99.90
24522;DHT22;12680;57.804;12.190;2023-09-12T14:08:15;21.50;99.90
24522;DHT22;12680;57.804;12.190;2023-09-12T14:10:43;22.50;99.90
24522;DHT22;12680;57.804;12.190;2023-09-12T14:13:10;22.20;99.90
24522;DHT22;12680;57.804;12.190;2023-09-12T14:15:48;21.40;99.90
24522;DHT22;12680;57.804;12.190;2023-09-12T14:18:17;21.40;99.90
24522;DHT22;12680;57.804;12.190;2023-09-12T14:20:45;21.40;99.90
24522;DHT22;12680;57.804;12.190;2023-09-12T14:23:14;21.30;99.90
24522;DHT22;12680;57.804;12.190;2023-09-12T14:25:42;21.90;99.90
24522;DHT22;12680;57.804;12.190;2023-09-12T14:28:09;21.00;99.90
24522;DHT22;12680;57.804;12.190;2023-09-12T14:30:37;20.90;99.90
24522;DHT22;12680;57.804;12.190;2023-09-12T14:33:05;21.20;99.90
24522;DHT22;12680;57.804;12.190;2023-09-12T14:35:32;20.70;99.90
24522;DHT22;12680;57.804;12.190;2023-09-12T14:37:58;20.70;99.90
24522;DHT22;12680;57.804;12.190;2023-09-12T14:40:27;22.80;99.90
24522;DHT22;12680;57.804;12.190;2023-09-12T14:42:54;20.70;99.90
24522;DHT22;12680;57.804;12.190;2023-09-12T14:45:21;20.70;99.90
24522;DHT22;12680;57.804;12.190;2023-09-12T14:47:48;20.80;99.90
24522;DHT22;12680;57.804;12.190;2023-09-12T14:50:15;21.40;99.90
24522;DHT22;12680;57.804;12.190;2023-09-12T14:52:43;20.80;99.90
24522;DHT22;12680;57.804;12.190;2023-09-12T14:55:10;21.50;99.90
24522;DHT22;12680;57.804;12.190;2023-09-12T14:57:37;20.80;99.90
24522;DHT22;12680;57.804;12.190;2023-09-12T15:00:04;20.80;99.90
24522;DHT22;12680;57.804;12.190;2023-09-12T15:02:32;20.70;99.90
24522;DHT22;12680;57.804;12.190;2023-09-12T15:05:00;20.60;99.90
24522;DHT22;12680;57.804;12.190;2023-09-12T15:07:28;21.10;99.90
24522;DHT22;12680;57.804;12.190;2023-09-12T15:09:58;20.40;99.90
24522;DHT22;12680;57.804;12.190;2023-09-12T15:12:25;21.00;99.90
24522;DHT22;12680;57.804;12.190;2023-09-12T15:14:52;20.20;99.90
24522;DHT22;12680;57.804;12.190;2023-09-12T15:17:19;20.10;99.90
24522;DHT22;12680;57.804;12.190;2023-09-12T15:19:46;20.30;99.90
24522;DHT22;12680;57.804;12.190;2023-09-12T15:22:13;20.20;99.90
24522;DHT22;12680;57.804;12.190;2023-09-12T15:24:40;21.20;99.90
24522;DHT22;12680;57.804;12.190;2023-09-12T15:27:08;20.80;99.90
24522;DHT22;12680;57.804;12.190;2023-09-12T15:29:34;20.20;99.90
24522;DHT22;12680;57.804;12.190;2023-09-12T15:32:01;20.20;99.90
24522;DHT22;12680;57.804;12.190;2023-09-12T15:34:28;20.20;99.90
24522;DHT22;12680;57.804;12.190;2023-09-12T15:37:10;20.10;99.90
24522;DHT22;12680;57.804;12.190;2023-09-12T15:39:40;20.00;99.90
24522;DHT22;12680;57.804;12.190;2023-09-12T15:42:07;20.00;99.90
24522;DHT22;12680;57.804;12.190;2023-09-12T15:44:34;21.00;99.90
24522;DHT22;12680;57.804;12.190;2023-09-12T15:47:00;21.60;99.90
24522;DHT22;12680;57.804;12.190;2023-09-12T15:49:45;20.00;99.90
24522;DHT22;12680;57.804;12.190;2023-09-12T15:52:12;20.20;99.90
24522;DHT22;12680;57.804;12.190;2023-09-12T15:54:39;20.40;99.90
24522;DHT22;12680;57.804;12.190;2023-09-12T15:57:06;20.40;99.90
24522;DHT22;12680;57.804;12.190;2023-09-12T15:59:33;20.40;99.90
24522;DHT22;12680;57.804;12.190;2023-09-12T16:01:59;21.40;99.90
24522;DHT22;12680;57.804;12.190;2023-09-12T16:04:26;20.20;99.90
24522;DHT22;12680;57.804;12.190;2023-09-12T16:06:53;21.00;99.90
24522;DHT22;12680;57.804;12.190;2023-09-12T16:09:20;20.60;99.90
24522;DHT22;12680;57.804;12.190;2023-09-12T16:11:48;20.80;99.90
24522;DHT22;12680;57.804;12.190;2023-09-12T16:14:15;20.20;99.90
24522;DHT22;12680;57.804;12.190;2023-09-12T16:16:42;18.70;99.90
24522;DHT22;12680;57.804;12.190;2023-09-12T16:19:09;19.80;99.90
24522;DHT22;12680;57.804;12.190;2023-09-12T16:21:38;19.70;99.90
24522;DHT22;12680;57.804;12.190;2023-09-12T16:24:05;17.30;99.90
24522;DHT22;12680;57.804;12.190;2023-09-12T16:26:35;19.70;99.90
24522;DHT22;12680;57.804;12.190;2023-09-12T16:29:02;19.60;99.90
24522;DHT22;12680;57.804;12.190;2023-09-12T16:31:29;19.60;99.90
24522;DHT22;12680;57.804;12.190;2023-09-12T16:33:56;19.60;99.90
24522;DHT22;12680;57.804;12.190;2023-09-12T16:36:23;20.00;99.90
24522;DHT22;12680;57.804;12.190;2023-09-12T16:38:50;19.50;99.90
24522;DHT22;12680;57.804;12.190;2023-09-12T16:41:17;19.60;99.90